Ana Sayfa
METAR-TAF:

METAR-TAF

Havaalanları :

Tulça, Romanya

Enlem: 45-11N, Boylam: 028-49E, yükseklik: 4 m

Güncel hava durumu gözlemi

Rapor saat 11:30 UTC de 19 dakika önce yapıldı.
Rüzgar doğu/güneydoğudan 11 kt
Sıcaklık 16°C
Nem 45%
Basınç 1028 hPa
Görüş mesafesi 10 km veya daha fazla
1500 m altında bulut yok ve kümülonimbus yok

METAR: LRTC 241130Z 11011KT CAVOK 16/04 Q1028 R16/D

Saat: 14:49 (11:49 UTC)

Tahmin

Rapor saat 11:00 UTC de 49 dakika önce yapıldı.
Ayın 24'si saat 12 UTC'den ayın 24'si saat 21 UTC'ye kadar geçerli Tahmin
Rüzgar doğu/güneydoğudan 10 kt
Görüş mesafesi 10 km veya daha fazla
4500 ft yükseklikte parçalı çok bulutlu

TAF: LRTC 241100Z 2412/2421 12010KT 9999 BKN045

4.000'den fazla havaalanı için hava durumu gözlemleri ve tahminleri (METAR ve TAF raporları).

Kullanılabilir istasyonlar harita üzerinde sarı ve kırmızı noktalarla gösterilir.

İstasyonun adını görmek için fareyi noktanın üzerinde gezdirin.

Sonrasında hava gözlem ve tahminlerini görmek için tıklayın.

Haritayı değiştirmek için: yaklaştırmak için siyah artı işaretli yeşil düğmeye ve uzaklaştırmak için de eksi işaretli düğmeye hızla tıklayın; bitişik haritalar için yeşil okları kullanın.


METAR-TAF: